createdAt,value
2022-11-29T00:01:45.600Z,87.43
2022-11-29T00:04:11.910Z,91.18
2022-11-29T00:06:39.929Z,96.18
2022-11-29T00:09:09.478Z,100.18
2022-11-29T00:11:38.054Z,96.53
2022-11-29T00:14:07.161Z,100.47
2022-11-29T00:16:34.030Z,99.55
2022-11-29T00:19:00.492Z,95.05
2022-11-29T00:21:27.283Z,94.60
2022-11-29T00:23:53.586Z,100.18
2022-11-29T00:26:20.177Z,69.05
2022-11-29T00:28:46.749Z,83.97
2022-11-29T00:31:22.981Z,81.45
2022-11-29T00:33:49.890Z,78.18
2022-11-29T00:36:16.961Z,83.00
2022-11-29T00:38:43.845Z,92.03
2022-11-29T00:41:10.885Z,90.68
2022-11-29T00:43:37.550Z,71.18
2022-11-29T00:46:04.504Z,69.43
2022-11-29T00:48:31.430Z,77.72
2022-11-29T00:51:00.605Z,99.55
2022-11-29T00:53:27.055Z,91.28
2022-11-29T00:55:53.991Z,66.47
2022-11-29T00:58:20.983Z,48.00
2022-11-29T01:00:47.739Z,71.20
2022-11-29T01:03:15.436Z,69.47
2022-11-29T01:05:42.395Z,54.97
2022-11-29T01:08:09.882Z,72.07
2022-11-29T01:10:36.178Z,70.65
2022-11-29T01:13:02.595Z,66.00
2022-11-29T01:15:29.195Z,68.60
2022-11-29T01:17:55.518Z,70.07
2022-11-29T01:20:21.854Z,69.47
2022-11-29T01:22:48.300Z,43.50
2022-11-29T01:25:15.298Z,60.78
2022-11-29T01:27:41.858Z,38.55
2022-11-29T01:30:09.934Z,64.63
2022-11-29T01:32:36.822Z,65.15
2022-11-29T01:35:04.019Z,44.88
2022-11-29T01:37:30.422Z,60.47
2022-11-29T01:39:56.883Z,59.15
2022-11-29T01:42:23.196Z,45.63
2022-11-29T01:44:49.475Z,52.13
2022-11-29T01:47:18.496Z,65.18
2022-11-29T01:49:48.684Z,63.58
2022-11-29T01:52:22.728Z,56.42
2022-11-29T01:54:52.338Z,59.63
2022-11-29T01:57:20.261Z,63.90
2022-11-29T01:59:49.598Z,57.25
2022-11-29T02:02:21.988Z,49.03
2022-11-29T02:04:49.471Z,48.30
2022-11-29T02:07:16.281Z,59.30
2022-11-29T02:09:42.764Z,54.10
2022-11-29T02:12:38.501Z,64.03
2022-11-29T02:15:33.244Z,59.83
2022-11-29T02:18:20.852Z,45.03
2022-11-29T02:21:27.392Z,59.50
2022-11-29T02:24:14.400Z,53.95
2022-11-29T02:26:49.618Z,61.83
2022-11-29T02:29:15.867Z,63.08
2022-11-29T02:32:00.167Z,60.55
2022-11-29T02:34:37.218Z,60.03
2022-11-29T02:37:16.063Z,43.63
2022-11-29T02:39:48.113Z,62.80
2022-11-29T02:42:38.899Z,40.45
2022-11-29T02:45:23.079Z,57.30
2022-11-29T02:48:07.817Z,50.40
2022-11-29T02:50:55.514Z,43.50
2022-11-29T02:53:43.269Z,60.13
2022-11-29T02:56:34.609Z,44.58
2022-11-29T02:59:03.916Z,45.80
2022-11-29T03:01:40.142Z,56.50
2022-11-29T03:04:12.642Z,34.47
2022-11-29T03:06:53.165Z,58.85
2022-11-29T03:09:36.834Z,55.03
2022-11-29T03:12:18.173Z,55.78
2022-11-29T03:14:57.374Z,40.95
2022-11-29T03:17:52.759Z,40.83
2022-11-29T03:20:37.411Z,41.95
2022-11-29T03:23:09.779Z,38.53
2022-11-29T03:25:40.241Z,44.28
2022-11-29T03:28:17.267Z,50.67
2022-11-29T03:30:51.140Z,53.08
2022-11-29T03:33:38.798Z,49.42
2022-11-29T03:36:27.345Z,47.58
2022-11-29T03:38:58.355Z,54.92
2022-11-29T03:41:40.162Z,54.15
2022-11-29T03:44:27.737Z,64.25
2022-11-29T03:47:06.432Z,65.55
2022-11-29T03:49:37.688Z,43.28
2022-11-29T03:52:15.456Z,43.47
2022-11-29T03:55:14.741Z,33.63
2022-11-29T03:57:59.131Z,32.47
2022-11-29T04:00:32.963Z,63.05
2022-11-29T04:03:29.109Z,48.75
2022-11-29T04:06:21.431Z,50.53
2022-11-29T04:09:11.519Z,42.20
2022-11-29T04:11:49.829Z,55.28
2022-11-29T04:14:31.410Z,44.05
2022-11-29T04:17:57.477Z,48.13
2022-11-29T04:21:01.091Z,56.95
2022-11-29T04:23:59.234Z,40.53
2022-11-29T04:27:10.831Z,59.85
2022-11-29T04:30:01.576Z,61.20
2022-11-29T04:32:58.740Z,58.63
2022-11-29T04:36:06.438Z,41.80
2022-11-29T04:38:46.781Z,64.90
2022-11-29T04:41:52.251Z,74.85
2022-11-29T04:44:58.091Z,53.03
2022-11-29T04:48:01.701Z,76.90
2022-11-29T04:50:59.639Z,41.28
2022-11-29T04:53:41.131Z,43.85
2022-11-29T04:56:23.486Z,35.13
2022-11-29T04:59:04.601Z,43.90
2022-11-29T05:01:52.871Z,39.40
2022-11-29T05:04:40.136Z,44.88
2022-11-29T05:07:38.388Z,34.67
2022-11-29T05:10:16.609Z,46.78
2022-11-29T05:12:53.029Z,31.27
2022-11-29T05:15:25.393Z,33.67
2022-11-29T05:18:21.852Z,37.33
2022-11-29T05:21:12.103Z,34.88
2022-11-29T05:24:06.587Z,26.42
2022-11-29T05:26:41.407Z,47.78
2022-11-29T05:29:33.923Z,40.17
2022-11-29T05:32:22.619Z,66.63
2022-11-29T05:35:10.713Z,41.70
2022-11-29T05:37:45.774Z,40.80
2022-11-29T05:40:56.679Z,40.72
2022-11-29T05:43:54.067Z,66.72
2022-11-29T05:46:31.395Z,47.47
2022-11-29T05:49:06.879Z,30.95
2022-11-29T05:51:48.602Z,34.15
2022-11-29T05:54:14.827Z,43.15
2022-11-29T05:57:17.157Z,30.65
2022-11-29T05:59:44.980Z,65.63
2022-11-29T06:02:26.559Z,71.25
2022-11-29T06:05:20.228Z,42.63
2022-11-29T06:08:05.081Z,28.10
2022-11-29T06:10:36.400Z,41.80
2022-11-29T06:13:21.478Z,54.78
2022-11-29T06:16:12.844Z,65.82
2022-11-29T06:19:12.991Z,43.55
2022-11-29T06:21:53.826Z,32.10
2022-11-29T06:24:55.396Z,29.15
2022-11-29T06:27:32.692Z,50.05
2022-11-29T06:30:13.166Z,62.28
2022-11-29T06:33:14.137Z,42.70
2022-11-29T06:35:50.846Z,34.35
2022-11-29T06:38:29.680Z,43.60
2022-11-29T06:41:02.047Z,54.50
2022-11-29T06:43:29.675Z,65.40
2022-11-29T06:46:03.138Z,37.30
2022-11-29T06:48:38.158Z,52.58
2022-11-29T06:51:23.676Z,38.78
2022-11-29T06:54:11.947Z,33.83
2022-11-29T06:56:52.072Z,54.58
2022-11-29T06:59:44.891Z,50.63
2022-11-29T07:02:51.461Z,41.33
2022-11-29T07:05:28.200Z,21.13
2022-11-29T07:07:57.845Z,44.80
2022-11-29T07:10:30.787Z,38.53
2022-11-29T07:12:57.778Z,34.47
2022-11-29T07:15:24.534Z,33.80
2022-11-29T07:18:02.974Z,22.75
2022-11-29T07:20:50.963Z,35.08
2022-11-29T07:23:48.691Z,29.95
2022-11-29T07:26:38.295Z,19.92
2022-11-29T07:29:43.747Z,30.38
2022-11-29T07:32:26.027Z,28.50
2022-11-29T07:35:08.517Z,33.90
2022-11-29T07:38:18.391Z,25.77
2022-11-29T07:40:44.617Z,23.23
2022-11-29T07:43:36.987Z,31.00
2022-11-29T07:46:03.345Z,39.90
2022-11-29T07:48:29.606Z,38.88
2022-11-29T07:50:56.786Z,37.10
2022-11-29T07:53:24.126Z,20.00
2022-11-29T07:55:51.072Z,34.30
2022-11-29T07:58:17.909Z,25.52
2022-11-29T08:00:44.900Z,26.17
2022-11-29T08:03:11.524Z,27.58
2022-11-29T08:05:38.494Z,44.35
2022-11-29T08:08:05.862Z,29.25
2022-11-29T08:10:32.402Z,18.50
2022-11-29T08:12:58.862Z,18.85
2022-11-29T08:15:25.585Z,21.13
2022-11-29T08:17:52.956Z,14.98
2022-11-29T08:20:19.807Z,14.18
2022-11-29T08:22:57.112Z,23.48
2022-11-29T08:25:23.802Z,15.05
2022-11-29T08:27:50.286Z,26.05
2022-11-29T08:30:16.962Z,24.08
2022-11-29T08:32:48.467Z,22.55
2022-11-29T08:35:22.006Z,26.67
2022-11-29T08:37:48.744Z,20.08
2022-11-29T08:48:22.887Z,24.85
2022-11-29T08:50:50.351Z,22.27
2022-11-29T08:53:16.674Z,20.80
2022-11-29T08:55:43.327Z,23.80
2022-11-29T08:58:12.770Z,26.98
2022-11-29T09:00:40.296Z,19.88
2022-11-29T09:03:07.562Z,20.60
2022-11-29T09:05:33.886Z,16.95
2022-11-29T09:08:00.279Z,17.17
2022-11-29T09:10:26.701Z,17.80
2022-11-29T09:12:53.030Z,20.65
2022-11-29T09:15:19.349Z,21.13
2022-11-29T09:17:45.627Z,14.85
2022-11-29T09:20:12.339Z,20.98
2022-11-29T09:22:38.638Z,20.90
2022-11-29T09:25:05.691Z,21.10
2022-11-29T09:27:32.216Z,18.63
2022-11-29T09:29:58.552Z,20.23
2022-11-29T09:32:24.908Z,21.02
2022-11-29T09:34:52.295Z,19.98
2022-11-29T09:37:18.842Z,18.08
2022-11-29T09:39:45.167Z,19.67
2022-11-29T09:42:55.100Z,16.63
2022-11-29T09:45:29.751Z,15.10
2022-11-29T09:48:14.938Z,19.30
2022-11-29T09:50:48.116Z,17.48
2022-11-29T09:54:05.304Z,15.85
2022-11-29T09:56:40.772Z,14.20
2022-11-29T09:59:17.143Z,16.33
2022-11-29T10:01:53.106Z,15.88
2022-11-29T10:04:25.336Z,22.77
2022-11-29T10:07:02.557Z,15.65
2022-11-29T10:09:48.906Z,18.65
2022-11-29T10:12:37.781Z,24.00
2022-11-29T10:15:15.923Z,17.40
2022-11-29T10:18:01.070Z,18.48
2022-11-29T10:20:36.430Z,23.55
2022-11-29T10:23:20.347Z,22.33
2022-11-29T10:25:52.855Z,23.85
2022-11-29T10:28:21.999Z,25.27
2022-11-29T10:30:50.219Z,23.75
2022-11-29T10:33:23.569Z,17.55
2022-11-29T10:35:54.135Z,23.30
2022-11-29T10:41:03.839Z,23.13
2022-11-29T10:43:30.252Z,20.42
2022-11-29T10:45:57.855Z,19.65
2022-11-29T10:48:30.435Z,19.70
2022-11-29T10:50:56.843Z,18.45
2022-11-29T10:53:31.014Z,21.45
2022-11-29T10:56:23.811Z,26.13
2022-11-29T10:59:01.327Z,20.58
2022-11-29T11:01:27.851Z,19.38
2022-11-29T11:03:56.980Z,19.15
2022-11-29T11:06:27.678Z,20.52
2022-11-29T11:09:14.371Z,21.55
2022-11-29T11:11:40.868Z,19.42
2022-11-29T11:14:27.976Z,22.65
2022-11-29T11:16:54.382Z,15.15
2022-11-29T11:19:26.957Z,18.05
2022-11-29T11:21:57.931Z,22.10
2022-11-29T11:24:28.444Z,28.35
2022-11-29T11:26:55.618Z,19.27
2022-11-29T11:29:25.587Z,17.67
2022-11-29T11:31:57.698Z,17.33
2022-11-29T11:34:38.173Z,17.63
2022-11-29T11:37:20.059Z,15.00
2022-11-29T11:39:50.169Z,16.15
2022-11-29T11:42:23.995Z,19.83
2022-11-29T11:44:51.180Z,21.08
2022-11-29T11:47:20.407Z,22.38
2022-11-29T11:49:55.527Z,19.88
2022-11-29T11:52:38.302Z,14.77
2022-11-29T11:55:21.883Z,21.33
2022-11-29T11:58:10.336Z,12.75
2022-11-29T12:01:06.216Z,17.33
2022-11-29T12:04:14.525Z,21.95
2022-11-29T12:06:52.001Z,18.48
2022-11-29T12:09:33.987Z,18.23
2022-11-29T12:12:21.014Z,21.60
2022-11-29T12:15:02.128Z,18.48
2022-11-29T12:17:35.340Z,18.60
2022-11-29T12:20:07.408Z,23.90
2022-11-29T12:23:03.276Z,22.67
2022-11-29T12:25:34.460Z,20.73
2022-11-29T12:28:00.926Z,22.35
2022-11-29T12:30:27.576Z,22.38
2022-11-29T12:33:19.886Z,19.63
2022-11-29T12:36:07.361Z,23.17
2022-11-29T12:38:43.795Z,24.10
2022-11-29T12:44:08.200Z,19.23
2022-11-29T12:46:35.314Z,20.40
2022-11-29T12:49:33.510Z,17.45
2022-11-29T12:51:59.776Z,16.27
2022-11-29T12:54:38.276Z,21.50
2022-11-29T12:57:19.738Z,22.40
2022-11-29T13:00:07.607Z,25.88
2022-11-29T13:03:04.801Z,27.98
2022-11-29T13:05:46.136Z,26.02
2022-11-29T13:08:31.029Z,25.98
2022-11-29T13:11:28.508Z,23.38
2022-11-29T13:14:42.000Z,36.65
2022-11-29T13:17:32.836Z,33.97
2022-11-29T13:20:19.678Z,34.78
2022-11-29T13:22:54.993Z,60.92
2022-11-29T13:25:30.084Z,33.90
2022-11-29T13:28:01.689Z,25.90
2022-11-29T13:30:28.260Z,42.63
2022-11-29T13:32:59.116Z,30.48
2022-11-29T13:35:49.972Z,28.77
2022-11-29T13:38:29.890Z,19.20
2022-11-29T13:41:38.424Z,28.25
2022-11-29T13:44:46.130Z,17.73
2022-11-29T13:47:17.884Z,24.85
2022-11-29T13:50:26.484Z,30.08
2022-11-29T13:53:03.768Z,26.08
2022-11-29T13:55:30.390Z,24.85
2022-11-29T13:58:16.728Z,26.00
2022-11-29T14:00:43.456Z,20.92
2022-11-29T14:03:27.717Z,23.60
2022-11-29T14:06:10.418Z,27.38
2022-11-29T14:09:16.762Z,25.73
2022-11-29T14:11:37.744Z,26.20
2022-11-29T14:14:16.917Z,27.08
2022-11-29T14:17:01.991Z,28.90
2022-11-29T14:19:36.837Z,24.90
2022-11-29T14:22:03.282Z,21.40
2022-11-29T14:24:32.605Z,39.63
2022-11-29T14:27:08.087Z,29.92
2022-11-29T14:29:49.739Z,80.78
2022-11-29T14:32:46.196Z,165.32
2022-11-29T14:35:12.843Z,46.22
2022-11-29T14:38:04.202Z,25.38
2022-11-29T14:40:45.963Z,24.27
2022-11-29T14:43:30.631Z,27.40
2022-11-29T14:46:15.461Z,30.70
2022-11-29T14:49:04.323Z,26.85
2022-11-29T14:51:33.085Z,30.40
2022-11-29T14:54:19.106Z,27.08
2022-11-29T14:56:46.668Z,26.42
2022-11-29T14:59:37.845Z,25.65
2022-11-29T15:02:41.782Z,27.17
2022-11-29T15:05:21.787Z,25.52
2022-11-29T15:08:08.539Z,28.45
2022-11-29T15:10:40.867Z,24.90
2022-11-29T15:13:11.986Z,26.45
2022-11-29T15:16:10.462Z,22.73
2022-11-29T15:19:11.164Z,26.60
2022-11-29T15:22:05.548Z,24.55
2022-11-29T15:26:59.990Z,17.58
2022-11-29T15:29:27.686Z,28.20
2022-11-29T15:31:57.083Z,26.20
2022-11-29T15:34:47.337Z,27.23
2022-11-29T15:37:38.614Z,19.08
2022-11-29T15:40:18.286Z,28.58
2022-11-29T15:42:50.083Z,18.05
2022-11-29T15:45:34.134Z,18.27
2022-11-29T15:48:39.307Z,21.27
2022-11-29T15:51:21.387Z,27.50
2022-11-29T15:54:00.433Z,19.13
2022-11-29T15:57:03.500Z,16.17
2022-11-29T15:59:46.580Z,23.10
2022-11-29T16:02:18.485Z,17.52
2022-11-29T16:04:47.248Z,18.70
2022-11-29T16:07:14.836Z,13.25
2022-11-29T16:09:45.227Z,11.80
2022-11-29T16:12:14.452Z,18.63
2022-11-29T16:14:55.195Z,19.52
2022-11-29T16:17:24.648Z,21.55
2022-11-29T16:19:51.052Z,20.27
2022-11-29T16:22:23.596Z,19.30
2022-11-29T16:25:05.706Z,16.45
2022-11-29T16:27:36.244Z,19.58
2022-11-29T16:30:04.471Z,23.25
2022-11-29T16:32:38.065Z,35.88
2022-11-29T16:35:22.653Z,18.52
2022-11-29T16:37:49.071Z,44.10
2022-11-29T16:40:28.388Z,17.65
2022-11-29T16:43:03.599Z,39.55
2022-11-29T16:45:38.617Z,37.92
2022-11-29T16:48:30.028Z,36.33
2022-11-29T16:51:26.732Z,23.15
2022-11-29T16:53:54.127Z,23.70
2022-11-29T16:56:23.348Z,19.52
2022-11-29T16:59:20.743Z,30.98
2022-11-29T17:01:39.999Z,22.75
2022-11-29T17:04:08.535Z,24.85
2022-11-29T17:06:35.019Z,25.02
2022-11-29T17:09:01.623Z,21.80
2022-11-29T17:11:28.004Z,19.83
2022-11-29T17:13:54.323Z,17.02
2022-11-29T17:16:22.969Z,23.27
2022-11-29T17:18:49.515Z,21.90
2022-11-29T17:21:25.902Z,17.00
2022-11-29T17:23:53.024Z,17.60
2022-11-29T17:26:20.910Z,20.27
2022-11-29T17:28:48.782Z,18.05
2022-11-29T17:31:17.813Z,20.90
2022-11-29T17:33:44.498Z,23.98
2022-11-29T17:36:13.193Z,21.92
2022-11-29T17:38:39.471Z,20.65
2022-11-29T17:41:10.923Z,21.63
2022-11-29T17:43:37.753Z,21.83
2022-11-29T17:46:08.189Z,24.77
2022-11-29T17:48:34.712Z,26.50
2022-11-29T17:51:01.498Z,29.33
2022-11-29T17:53:27.900Z,35.97
2022-11-29T17:55:54.175Z,31.45
2022-11-29T17:58:20.513Z,25.27
2022-11-29T18:00:46.837Z,49.35
2022-11-29T18:03:13.166Z,36.58
2022-11-29T18:05:39.724Z,28.88
2022-11-29T18:08:07.010Z,22.23
2022-11-29T18:10:33.280Z,19.35
2022-11-29T18:12:59.609Z,22.08
2022-11-29T18:15:25.954Z,19.48
2022-11-29T18:17:52.245Z,23.77
2022-11-29T18:20:18.579Z,24.10
2022-11-29T18:22:44.902Z,20.15
2022-11-29T18:25:37.549Z,22.60
2022-11-29T18:27:57.454Z,21.73
2022-11-29T18:30:23.730Z,25.05
2022-11-29T18:32:49.994Z,15.38
2022-11-29T18:35:16.479Z,23.35
2022-11-29T18:38:13.657Z,20.45
2022-11-29T18:40:29.378Z,20.92
2022-11-29T18:42:55.683Z,20.38
2022-11-29T18:45:22.084Z,19.95
2022-11-29T18:47:48.400Z,24.08
2022-11-29T18:50:14.799Z,17.13
2022-11-29T18:52:41.100Z,14.90
2022-11-29T18:55:07.882Z,21.75
2022-11-29T18:57:36.129Z,19.30
2022-11-29T19:00:03.331Z,15.35
2022-11-29T19:02:29.681Z,27.52
2022-11-29T19:04:56.008Z,23.40
2022-11-29T19:07:22.356Z,19.90
2022-11-29T19:09:48.749Z,20.00
2022-11-29T19:12:15.127Z,21.63
2022-11-29T19:14:46.505Z,17.85
2022-11-29T19:17:16.362Z,21.98
2022-11-29T19:19:42.931Z,18.65
2022-11-29T19:22:09.497Z,19.98
2022-11-29T19:24:35.872Z,17.95
2022-11-29T19:27:02.164Z,18.88
2022-11-29T19:29:28.893Z,18.08
2022-11-29T19:31:55.290Z,18.20
2022-11-29T19:34:21.712Z,12.90
2022-11-29T19:36:48.440Z,14.98
2022-11-29T19:39:17.502Z,17.08
2022-11-29T19:41:46.605Z,15.95
2022-11-29T19:44:13.169Z,14.25
2022-11-29T19:46:42.693Z,15.93
2022-11-29T19:49:09.905Z,13.43
2022-11-29T19:51:36.495Z,17.55
2022-11-29T19:54:05.808Z,17.58
2022-11-29T19:56:32.650Z,18.25
2022-11-29T19:58:59.510Z,11.60
2022-11-29T20:01:28.253Z,19.13
2022-11-29T20:03:56.328Z,17.58
2022-11-29T20:06:22.786Z,15.85
2022-11-29T20:08:49.396Z,19.83
2022-11-29T20:11:21.139Z,15.25
2022-11-29T20:13:53.228Z,12.90
2022-11-29T20:16:19.614Z,14.18
2022-11-29T20:18:50.931Z,15.88
2022-11-29T20:21:24.941Z,14.50
2022-11-29T20:23:59.049Z,18.67
2022-11-29T20:26:26.581Z,16.35
2022-11-29T20:28:52.873Z,19.38
2022-11-29T20:31:20.878Z,18.33
2022-11-29T20:33:47.487Z,13.05
2022-11-29T20:36:16.580Z,15.48
2022-11-29T20:38:54.523Z,14.00
2022-11-29T20:41:27.286Z,19.25
2022-11-29T20:43:59.705Z,14.07
2022-11-29T20:46:27.673Z,18.20
2022-11-29T20:48:55.139Z,14.18
2022-11-29T20:51:36.935Z,18.05
2022-11-29T20:54:03.512Z,16.58
2022-11-29T20:56:29.834Z,11.57
2022-11-29T20:58:56.499Z,13.75
2022-11-29T21:01:22.983Z,19.02
2022-11-29T21:03:49.543Z,17.02
2022-11-29T21:06:15.883Z,18.88
2022-11-29T21:08:42.482Z,18.33
2022-11-29T21:11:09.641Z,16.23
2022-11-29T21:13:36.629Z,18.42
2022-11-29T21:16:03.693Z,16.60
2022-11-29T21:18:30.683Z,17.15
2022-11-29T21:21:26.234Z,12.18
2022-11-29T21:24:00.618Z,13.32
2022-11-29T21:26:44.598Z,15.45
2022-11-29T21:29:14.183Z,15.23
2022-11-29T21:31:40.741Z,11.18
2022-11-29T21:34:07.127Z,15.73
2022-11-29T21:36:33.724Z,13.75
2022-11-29T21:39:04.875Z,14.25
2022-11-29T21:41:32.020Z,13.85
2022-11-29T21:44:06.436Z,16.33
2022-11-29T21:46:33.620Z,16.75
2022-11-29T21:48:59.972Z,19.48
2022-11-29T21:51:26.307Z,14.32
2022-11-29T21:53:52.631Z,14.80
2022-11-29T21:56:18.942Z,13.80
2022-11-29T21:58:45.412Z,13.85
2022-11-29T22:01:14.295Z,14.70
2022-11-29T22:03:41.630Z,11.60
2022-11-29T22:06:10.170Z,11.63
2022-11-29T22:08:38.218Z,14.32
2022-11-29T22:11:07.333Z,10.57
2022-11-29T22:13:33.764Z,12.52
2022-11-29T22:16:10.357Z,9.20
2022-11-29T22:21:05.156Z,14.30
2022-11-29T22:23:31.805Z,9.65
2022-11-29T22:26:05.754Z,12.30
2022-11-29T22:28:32.852Z,12.07
2022-11-29T22:31:07.066Z,11.55
2022-11-29T22:33:34.284Z,15.10
2022-11-29T22:36:08.897Z,10.20
2022-11-29T22:38:35.499Z,8.48
2022-11-29T22:41:03.946Z,12.48
2022-11-29T22:43:31.530Z,9.70
2022-11-29T22:46:08.212Z,12.30
2022-11-29T22:48:38.737Z,17.33
2022-11-29T22:51:14.510Z,16.60
2022-11-29T22:53:43.483Z,14.18
2022-11-29T22:56:11.373Z,13.75
2022-11-29T22:58:37.824Z,14.85
2022-11-29T23:01:13.170Z,18.88
2022-11-29T23:03:42.094Z,13.95
2022-11-29T23:06:14.123Z,16.73
2022-11-29T23:08:42.185Z,16.67
2022-11-29T23:11:11.643Z,20.40
2022-11-29T23:13:40.180Z,18.95
2022-11-29T23:16:09.546Z,21.35
2022-11-29T23:18:36.338Z,17.63
2022-11-29T23:21:05.449Z,26.38
2022-11-29T23:23:32.479Z,28.83
2022-11-29T23:25:59.528Z,18.35
2022-11-29T23:28:26.756Z,21.40
2022-11-29T23:30:53.296Z,21.65
2022-11-29T23:33:21.071Z,22.00
2022-11-29T23:35:48.039Z,15.38
2022-11-29T23:38:14.674Z,12.27
2022-11-29T23:40:41.034Z,14.65
2022-11-29T23:43:07.438Z,22.05
2022-11-29T23:45:36.146Z,17.63
2022-11-29T23:48:02.695Z,19.88
2022-11-29T23:50:29.024Z,23.60
2022-11-29T23:52:55.760Z,21.63
2022-11-29T23:55:24.677Z,24.63
2022-11-29T23:57:51.711Z,15.43
